NJT300 PAJN-CYVR
Flight info
| Callsign | NJT300 |
|---|---|
| Flight time | N/A |
| Altitude | 37000 |
| Route | GLAZZ1 LVD Q902 YZT DCT LIBOG |
| Aircraft | A20N/M-SDE2E3FGHIRWXY/LB1 |
Departure
| Time | 2026-05-05 05:18 |
|---|---|
| Airport | Juneau International Airport (PAJN) |
Arrival
| Time | N/A |
|---|---|
| Airport | Vancouver International Airport (CYVR) |
| Time | Latitude | Longitude | Altitude | Speed | Heading |
|---|---|---|---|---|---|
| 2026-05-05 05:09 | 58.35835 | -134.58368 | 34 ft | 0 kts | 22° |
| 2026-05-05 05:11 | 58.35820 | -134.58379 | 33 ft | 4 kts | 19° |
| 2026-05-05 05:11 | 58.35795 | -134.58394 | 33 ft | 4 kts | 17° |
| 2026-05-05 05:11 | 58.35782 | -134.58405 | 30 ft | 2 kts | 77° |
| 2026-05-05 05:12 | 58.35783 | -134.58425 | 32 ft | 2 kts | 102° |
| 2026-05-05 05:12 | 58.35783 | -134.58426 | 32 ft | 0 kts | 102° |
| 2026-05-05 05:13 | 58.35782 | -134.58418 | 32 ft | 2 kts | 102° |
| 2026-05-05 05:13 | 58.35775 | -134.58366 | 32 ft | 6 kts | 108° |
| 2026-05-05 05:13 | 58.35741 | -134.58304 | 34 ft | 8 kts | 170° |
| 2026-05-05 05:14 | 58.35692 | -134.58242 | 32 ft | 10 kts | 108° |
| 2026-05-05 05:14 | 58.35671 | -134.58092 | 34 ft | 13 kts | 105° |
| 2026-05-05 05:14 | 58.35645 | -134.57910 | 32 ft | 15 kts | 105° |
| 2026-05-05 05:14 | 58.35615 | -134.57698 | 34 ft | 18 kts | 105° |
| 2026-05-05 05:15 | 58.35581 | -134.57458 | 34 ft | 20 kts | 105° |
| 2026-05-05 05:15 | 58.35545 | -134.57192 | 32 ft | 22 kts | 103° |
| 2026-05-05 05:15 | 58.35504 | -134.56901 | 33 ft | 24 kts | 105° |
| 2026-05-05 05:15 | 58.35462 | -134.56590 | 33 ft | 25 kts | 105° |
| 2026-05-05 05:16 | 58.35416 | -134.56263 | 32 ft | 26 kts | 105° |
| 2026-05-05 05:16 | 58.35368 | -134.55919 | 34 ft | 27 kts | 104° |
| 2026-05-05 05:16 | 58.35319 | -134.55561 | 34 ft | 28 kts | 105° |
| 2026-05-05 05:16 | 58.35268 | -134.55303 | 34 ft | 16 kts | 149° |
| 2026-05-05 05:17 | 58.35176 | -134.55292 | 32 ft | 10 kts | 235° |
| 2026-05-05 05:17 | 58.35182 | -134.55385 | 32 ft | 1 kts | 285° |
| 2026-05-05 05:17 | 58.35213 | -134.55602 | 31 ft | 49 kts | 284° |
| 2026-05-05 05:17 | 58.35360 | -134.56669 | 34 ft | 114 kts | 284° |
| 2026-05-05 05:18 | 58.35606 | -134.58428 | 128 ft | 151 kts | 285° |
| 2026-05-05 05:18 | 58.35870 | -134.60331 | 720 ft | 148 kts | 285° |
| 2026-05-05 05:18 | 58.36129 | -134.62259 | 1295 ft | 152 kts | 282° |
| 2026-05-05 05:18 | 58.36023 | -134.64277 | 1782 ft | 160 kts | 247° |
| 2026-05-05 05:19 | 58.35399 | -134.66158 | 2153 ft | 177 kts | 227° |
| 2026-05-05 05:19 | 58.34420 | -134.67779 | 2570 ft | 195 kts | 214° |
| 2026-05-05 05:19 | 58.33205 | -134.69211 | 3045 ft | 214 kts | 206° |
| 2026-05-05 05:19 | 58.31766 | -134.70324 | 3560 ft | 234 kts | 194° |
| 2026-05-05 05:20 | 58.30126 | -134.70877 | 4115 ft | 253 kts | 182° |
| 2026-05-05 05:20 | 58.28336 | -134.70635 | 4934 ft | 261 kts | 168° |
| 2026-05-05 05:20 | 58.26604 | -134.69528 | 5925 ft | 265 kts | 154° |
| 2026-05-05 05:20 | 58.25046 | -134.67586 | 6859 ft | 271 kts | 140° |
| 2026-05-05 05:21 | 58.23787 | -134.64881 | 7781 ft | 277 kts | 125° |
| 2026-05-05 05:21 | 58.22920 | -134.61582 | 8734 ft | 282 kts | 114° |
| 2026-05-05 05:21 | 58.22163 | -134.58116 | 9668 ft | 287 kts | 115° |
| 2026-05-05 05:21 | 58.21379 | -134.54578 | 10456 ft | 296 kts | 116° |
| 2026-05-05 05:22 | 58.20538 | -134.50841 | 10810 ft | 320 kts | 116° |
| 2026-05-05 05:22 | 58.19627 | -134.46821 | 11207 ft | 338 kts | 116° |
| 2026-05-05 05:22 | 58.18707 | -134.42752 | 12001 ft | 342 kts | 116° |
| 2026-05-05 05:22 | 58.17765 | -134.38588 | 12867 ft | 346 kts | 116° |
| 2026-05-05 05:23 | 58.16807 | -134.34369 | 13708 ft | 350 kts | 117° |
| 2026-05-05 05:23 | 58.15837 | -134.30110 | 14429 ft | 355 kts | 117° |
| 2026-05-05 05:23 | 58.14850 | -134.25793 | 15104 ft | 360 kts | 117° |
| 2026-05-05 05:23 | 58.13848 | -134.21418 | 15790 ft | 365 kts | 117° |
| 2026-05-05 05:24 | 58.12775 | -134.17031 | 16424 ft | 369 kts | 124° |
| 2026-05-05 05:24 | 58.11250 | -134.13154 | 17053 ft | 367 kts | 138° |
| 2026-05-05 05:24 | 58.09291 | -134.10077 | 17651 ft | 367 kts | 152° |
| 2026-05-05 05:24 | 58.07100 | -134.07555 | 18377 ft | 368 kts | 153° |
| 2026-05-05 05:25 | 58.04905 | -134.05028 | 19051 ft | 370 kts | 153° |
| 2026-05-05 05:25 | 58.02698 | -134.02475 | 19643 ft | 374 kts | 153° |
| 2026-05-05 05:25 | 58.00467 | -133.99891 | 20254 ft | 377 kts | 153° |
| 2026-05-05 05:25 | 57.98218 | -133.97286 | 20858 ft | 380 kts | 153° |
| 2026-05-05 05:26 | 57.95948 | -133.94662 | 21454 ft | 384 kts | 153° |
| 2026-05-05 05:26 | 57.93646 | -133.92238 | 22049 ft | 383 kts | 159° |
| 2026-05-05 05:26 | 57.91180 | -133.90323 | 22623 ft | 383 kts | 166° |
| 2026-05-05 05:26 | 57.88632 | -133.88828 | 23202 ft | 385 kts | 167° |
| 2026-05-05 05:27 | 57.86053 | -133.87332 | 23753 ft | 388 kts | 167° |
| 2026-05-05 05:27 | 57.83460 | -133.85816 | 24194 ft | 392 kts | 167° |
| 2026-05-05 05:27 | 57.78178 | -133.82714 | 25045 ft | 400 kts | 167° |
| 2026-05-05 05:28 | 57.75508 | -133.81145 | 25498 ft | 403 kts | 167° |
| 2026-05-05 05:28 | 57.72822 | -133.79569 | 25942 ft | 406 kts | 168° |
| 2026-05-05 05:28 | 57.70149 | -133.78003 | 26371 ft | 409 kts | 168° |
| 2026-05-05 05:28 | 57.67422 | -133.76409 | 26805 ft | 412 kts | 168° |
| 2026-05-05 05:29 | 57.64676 | -133.74806 | 27226 ft | 414 kts | 168° |
| 2026-05-05 05:29 | 57.61916 | -133.73198 | 27630 ft | 417 kts | 168° |
| 2026-05-05 05:29 | 57.59130 | -133.71577 | 28030 ft | 420 kts | 168° |
| 2026-05-05 05:29 | 57.56332 | -133.69952 | 28410 ft | 423 kts | 168° |
| 2026-05-05 05:30 | 57.53517 | -133.68320 | 28757 ft | 425 kts | 168° |
| 2026-05-05 05:30 | 57.50673 | -133.66677 | 28981 ft | 431 kts | 168° |
| 2026-05-05 05:30 | 57.47802 | -133.65019 | 29345 ft | 433 kts | 168° |
| 2026-05-05 05:30 | 57.44922 | -133.63355 | 29872 ft | 431 kts | 168° |
| 2026-05-05 05:31 | 57.42044 | -133.61694 | 30183 ft | 435 kts | 168° |
| 2026-05-05 05:31 | 57.39137 | -133.60022 | 30472 ft | 437 kts | 168° |
| 2026-05-05 05:31 | 57.36224 | -133.58349 | 30796 ft | 439 kts | 168° |
| 2026-05-05 05:31 | 57.33301 | -133.56673 | 31112 ft | 441 kts | 168° |
| 2026-05-05 05:32 | 57.30367 | -133.54992 | 31492 ft | 441 kts | 168° |
| 2026-05-05 05:32 | 57.27478 | -133.53340 | 31910 ft | 439 kts | 169° |
| 2026-05-05 05:32 | 57.24564 | -133.51676 | 32328 ft | 438 kts | 169° |
| 2026-05-05 05:32 | 57.21646 | -133.50015 | 32600 ft | 440 kts | 169° |
| 2026-05-05 05:33 | 57.18707 | -133.48347 | 32910 ft | 441 kts | 169° |
| 2026-05-05 05:33 | 57.15779 | -133.46682 | 33321 ft | 440 kts | 169° |
| 2026-05-05 05:33 | 57.12857 | -133.45025 | 33729 ft | 438 kts | 169° |
| 2026-05-05 05:33 | 57.09945 | -133.43378 | 34096 ft | 437 kts | 169° |
| 2026-05-05 05:34 | 57.07039 | -133.41737 | 34419 ft | 436 kts | 169° |
| 2026-05-05 05:34 | 57.04139 | -133.40102 | 34744 ft | 435 kts | 169° |
| 2026-05-05 05:34 | 57.01251 | -133.38476 | 35041 ft | 434 kts | 169° |
| 2026-05-05 05:34 | 56.98369 | -133.36857 | 35335 ft | 433 kts | 169° |
| 2026-05-05 05:35 | 56.95484 | -133.35239 | 35616 ft | 432 kts | 169° |
| 2026-05-05 05:35 | 56.92614 | -133.33634 | 35924 ft | 430 kts | 170° |
| 2026-05-05 05:35 | 56.89796 | -133.32057 | 36334 ft | 426 kts | 170° |
| 2026-05-05 05:35 | 56.86965 | -133.30474 | 36597 ft | 425 kts | 170° |
| 2026-05-05 05:36 | 56.84125 | -133.28892 | 36849 ft | 425 kts | 170° |
| 2026-05-05 05:36 | 56.81302 | -133.27321 | 37027 ft | 424 kts | 170° |
| 2026-05-05 05:36 | 56.75671 | -133.24195 | 37021 ft | 422 kts | 170° |
| 2026-05-05 05:37 | 56.69999 | -133.21063 | 37025 ft | 431 kts | 170° |
| 2026-05-05 05:37 | 56.64221 | -133.17877 | 36983 ft | 434 kts | 170° |
| 2026-05-05 05:38 | 56.58399 | -133.14672 | 37009 ft | 437 kts | 170° |
| 2026-05-05 05:38 | 56.52611 | -133.11499 | 37002 ft | 436 kts | 170° |
| 2026-05-05 05:39 | 56.46816 | -133.07849 | 37001 ft | 443 kts | 163° |
| 2026-05-05 05:39 | 56.41386 | -133.02413 | 36992 ft | 452 kts | 155° |
| 2026-05-05 05:40 | 56.36044 | -132.96406 | 36968 ft | 453 kts | 155° |
| 2026-05-05 05:40 | 56.30641 | -132.90405 | 36984 ft | 457 kts | 156° |
| 2026-05-05 05:41 | 56.25235 | -132.84435 | 36982 ft | 456 kts | 156° |
| 2026-05-05 05:41 | 56.19811 | -132.78470 | 36971 ft | 456 kts | 156° |
| 2026-05-05 05:42 | 56.14389 | -132.72530 | 36971 ft | 456 kts | 156° |
| 2026-05-05 05:42 | 56.08944 | -132.66589 | 36961 ft | 461 kts | 156° |
| 2026-05-05 05:43 | 56.03468 | -132.60634 | 36963 ft | 460 kts | 156° |
| 2026-05-05 05:43 | 55.97986 | -132.54684 | 36961 ft | 460 kts | 156° |
| 2026-05-05 05:44 | 55.92504 | -132.48756 | 36958 ft | 460 kts | 156° |
| 2026-05-05 05:44 | 55.87021 | -132.42850 | 36943 ft | 461 kts | 156° |
| 2026-05-05 05:45 | 55.81525 | -132.36953 | 36955 ft | 464 kts | 156° |
| 2026-05-05 05:45 | 55.76001 | -132.31038 | 36952 ft | 463 kts | 156° |
| 2026-05-05 05:46 | 55.70468 | -132.25136 | 36962 ft | 463 kts | 156° |
| 2026-05-05 05:46 | 55.65865 | -132.20242 | 36952 ft | 464 kts | 156° |
| 2026-05-05 05:47 | 55.60322 | -132.14358 | 36947 ft | 467 kts | 156° |
| 2026-05-05 05:47 | 55.54731 | -132.08513 | 36954 ft | 468 kts | 155° |
| 2026-05-05 05:48 | 55.49142 | -132.02596 | 36946 ft | 467 kts | 155° |
| 2026-05-05 05:48 | 55.43547 | -131.96708 | 36945 ft | 467 kts | 156° |
| 2026-05-05 05:49 | 55.37984 | -131.90889 | 36939 ft | 469 kts | 155° |
| 2026-05-05 05:49 | 55.32336 | -131.85005 | 36959 ft | 472 kts | 155° |
| 2026-05-05 05:50 | 55.26685 | -131.79137 | 36954 ft | 472 kts | 155° |
| 2026-05-05 05:50 | 55.21024 | -131.73284 | 36945 ft | 471 kts | 155° |
| 2026-05-05 05:51 | 55.15371 | -131.67439 | 36916 ft | 471 kts | 155° |
| 2026-05-05 05:51 | 55.09688 | -131.61594 | 36938 ft | 475 kts | 155° |
| 2026-05-05 05:52 | 55.04025 | -131.55752 | 36929 ft | 475 kts | 154° |
| 2026-05-05 05:52 | 54.98392 | -131.49645 | 36930 ft | 476 kts | 154° |
| 2026-05-05 05:53 | 54.92771 | -131.43547 | 36929 ft | 476 kts | 154° |
| 2026-05-05 05:53 | 54.87115 | -131.37473 | 36931 ft | 480 kts | 154° |
| 2026-05-05 05:54 | 54.81469 | -131.31433 | 36936 ft | 479 kts | 154° |
| 2026-05-05 05:54 | 54.75784 | -131.25377 | 36936 ft | 479 kts | 154° |
| 2026-05-05 05:55 | 54.70117 | -131.19317 | 36935 ft | 480 kts | 151° |
| 2026-05-05 05:55 | 54.64747 | -131.12295 | 36932 ft | 486 kts | 147° |
| 2026-05-05 05:56 | 54.59237 | -131.05708 | 36937 ft | 478 kts | 154° |
| 2026-05-05 05:56 | 54.53535 | -130.99805 | 36936 ft | 478 kts | 154° |
| 2026-05-05 05:57 | 54.47833 | -130.93902 | 36936 ft | 478 kts | 154° |
| 2026-05-05 05:57 | 54.42131 | -130.88007 | 36932 ft | 478 kts | 154° |
| 2026-05-05 05:58 | 54.36452 | -130.82155 | 36931 ft | 478 kts | 154° |
| 2026-05-05 05:58 | 54.30734 | -130.76282 | 36928 ft | 478 kts | 154° |
| 2026-05-05 05:59 | 54.25021 | -130.70433 | 36928 ft | 478 kts | 154° |
| 2026-05-05 05:59 | 54.19302 | -130.64599 | 36928 ft | 481 kts | 154° |
| 2026-05-05 06:00 | 54.13542 | -130.58739 | 36938 ft | 481 kts | 154° |
| 2026-05-05 06:00 | 54.07792 | -130.52910 | 36936 ft | 481 kts | 154° |
| 2026-05-05 06:01 | 54.02038 | -130.47094 | 36930 ft | 481 kts | 154° |
| 2026-05-05 06:01 | 53.96305 | -130.41323 | 36925 ft | 483 kts | 154° |
| 2026-05-05 06:02 | 53.90522 | -130.35503 | 36923 ft | 482 kts | 154° |
| 2026-05-05 06:02 | 53.84735 | -130.29718 | 36926 ft | 483 kts | 154° |
| 2026-05-05 06:03 | 53.78934 | -130.23937 | 36937 ft | 482 kts | 154° |
| 2026-05-05 06:03 | 53.73159 | -130.18218 | 36927 ft | 484 kts | 154° |
| 2026-05-05 06:04 | 53.67382 | -130.12472 | 36938 ft | 481 kts | 154° |
| 2026-05-05 06:04 | 53.61589 | -130.06754 | 36939 ft | 482 kts | 154° |
| 2026-05-05 06:05 | 53.55797 | -130.01050 | 36931 ft | 481 kts | 154° |
| 2026-05-05 06:05 | 53.50037 | -129.95399 | 36932 ft | 483 kts | 154° |
| 2026-05-05 06:06 | 53.44215 | -129.89702 | 36930 ft | 484 kts | 154° |
| 2026-05-05 06:06 | 53.38395 | -129.84025 | 36930 ft | 484 kts | 154° |
| 2026-05-05 06:07 | 53.32575 | -129.78366 | 36931 ft | 483 kts | 154° |
| 2026-05-05 06:07 | 53.26749 | -129.72723 | 36927 ft | 485 kts | 154° |
| 2026-05-05 06:08 | 53.20896 | -129.67069 | 36925 ft | 485 kts | 154° |
| 2026-05-05 06:08 | 53.15085 | -129.61473 | 36921 ft | 485 kts | 154° |
| 2026-05-05 06:09 | 53.09233 | -129.55855 | 36923 ft | 485 kts | 154° |
| 2026-05-05 06:09 | 53.03371 | -129.50243 | 36922 ft | 487 kts | 154° |
| 2026-05-05 06:10 | 52.97493 | -129.44591 | 36919 ft | 487 kts | 153° |
| 2026-05-05 06:10 | 52.91665 | -129.38979 | 36922 ft | 487 kts | 154° |
| 2026-05-05 06:11 | 52.85799 | -129.33354 | 36910 ft | 485 kts | 154° |
| 2026-05-05 06:11 | 52.79959 | -129.27775 | 36918 ft | 486 kts | 154° |
| 2026-05-05 06:12 | 52.74095 | -129.22192 | 36915 ft | 486 kts | 154° |
| 2026-05-05 06:12 | 52.68238 | -129.16631 | 36913 ft | 486 kts | 154° |
| 2026-05-05 06:13 | 52.62408 | -129.11115 | 36912 ft | 486 kts | 154° |
| 2026-05-05 06:13 | 52.56531 | -129.05572 | 36911 ft | 488 kts | 153° |
| 2026-05-05 06:14 | 52.50637 | -129.00027 | 36913 ft | 488 kts | 154° |
| 2026-05-05 06:14 | 52.44741 | -128.94500 | 36908 ft | 487 kts | 154° |
| 2026-05-05 06:15 | 52.38840 | -128.88984 | 36911 ft | 488 kts | 154° |
| 2026-05-05 06:15 | 52.32933 | -128.83483 | 36908 ft | 490 kts | 153° |
| 2026-05-05 06:16 | 52.27037 | -128.78005 | 36905 ft | 489 kts | 153° |
| 2026-05-05 06:16 | 52.21113 | -128.72518 | 36905 ft | 489 kts | 153° |
| 2026-05-05 06:17 | 52.15185 | -128.67044 | 36914 ft | 489 kts | 153° |
| 2026-05-05 06:17 | 52.09258 | -128.61580 | 36914 ft | 489 kts | 154° |
| 2026-05-05 06:18 | 52.03324 | -128.56129 | 36911 ft | 489 kts | 154° |
| 2026-05-05 06:18 | 51.97403 | -128.50708 | 36916 ft | 486 kts | 154° |
| 2026-05-05 06:19 | 51.91511 | -128.45330 | 36911 ft | 487 kts | 153° |
| 2026-05-05 06:19 | 51.85581 | -128.39934 | 36917 ft | 488 kts | 153° |
| 2026-05-05 06:20 | 51.79687 | -128.34586 | 36925 ft | 488 kts | 154° |
| 2026-05-05 06:20 | 51.73758 | -128.29224 | 36928 ft | 488 kts | 154° |
| 2026-05-05 06:21 | 51.67827 | -128.23878 | 36925 ft | 490 kts | 153° |
| 2026-05-05 06:21 | 51.61866 | -128.18519 | 36925 ft | 489 kts | 153° |
| 2026-05-05 06:22 | 51.55899 | -128.13169 | 36931 ft | 490 kts | 153° |
| 2026-05-05 06:22 | 51.49970 | -128.07872 | 36930 ft | 490 kts | 153° |
| 2026-05-05 06:23 | 51.43998 | -128.02554 | 36933 ft | 492 kts | 153° |
| 2026-05-05 06:23 | 51.38013 | -127.97236 | 36941 ft | 491 kts | 153° |
| 2026-05-05 06:24 | 51.32029 | -127.91937 | 36941 ft | 491 kts | 153° |
| 2026-05-05 06:24 | 51.26034 | -127.86644 | 36935 ft | 491 kts | 153° |
| 2026-05-05 06:25 | 51.20060 | -127.81389 | 36933 ft | 493 kts | 153° |
| 2026-05-05 06:25 | 51.14058 | -127.76120 | 36936 ft | 491 kts | 153° |
| 2026-05-05 06:26 | 51.08094 | -127.70901 | 36935 ft | 488 kts | 153° |
| 2026-05-05 06:26 | 51.02127 | -127.65696 | 36928 ft | 490 kts | 153° |
| 2026-05-05 06:27 | 50.94140 | -127.58753 | 36927 ft | 490 kts | 153° |
| 2026-05-05 06:28 | 50.88152 | -127.53565 | 36933 ft | 490 kts | 153° |
| 2026-05-05 06:28 | 50.82154 | -127.48384 | 36926 ft | 490 kts | 153° |
| 2026-05-05 06:29 | 50.76142 | -127.43210 | 36935 ft | 492 kts | 152° |
| 2026-05-05 06:29 | 50.70362 | -127.37460 | 36933 ft | 493 kts | 139° |
| 2026-05-05 06:29 | 50.67963 | -127.33597 | 36934 ft | 493 kts | 128° |
| 2026-05-05 06:30 | 50.66022 | -127.29149 | 36935 ft | 493 kts | 118° |
| 2026-05-05 06:30 | 50.62925 | -127.19597 | 36934 ft | 492 kts | 115° |
| 2026-05-05 06:31 | 50.59816 | -127.09992 | 36927 ft | 492 kts | 116° |
| 2026-05-05 06:31 | 50.56694 | -127.00420 | 36933 ft | 492 kts | 116° |
| 2026-05-05 06:32 | 50.53552 | -126.90838 | 36933 ft | 492 kts | 116° |
| 2026-05-05 06:32 | 50.50405 | -126.81278 | 36936 ft | 492 kts | 116° |
| 2026-05-05 06:33 | 50.47265 | -126.71778 | 36947 ft | 491 kts | 115° |
| 2026-05-05 06:33 | 50.44097 | -126.62217 | 36936 ft | 494 kts | 115° |
| 2026-05-05 06:34 | 50.40912 | -126.52653 | 36939 ft | 494 kts | 115° |
| 2026-05-05 06:34 | 50.37725 | -126.43111 | 36935 ft | 494 kts | 115° |
| 2026-05-05 06:35 | 50.34550 | -126.33648 | 36935 ft | 492 kts | 115° |
| 2026-05-05 06:35 | 50.31378 | -126.24243 | 36931 ft | 484 kts | 115° |
| 2026-05-05 06:36 | 50.28214 | -126.14877 | 36930 ft | 488 kts | 115° |
| 2026-05-05 06:36 | 50.25053 | -126.05556 | 36931 ft | 487 kts | 115° |
| 2026-05-05 06:37 | 50.21872 | -125.96207 | 36932 ft | 487 kts | 115° |
| 2026-05-05 06:37 | 50.18680 | -125.86867 | 36926 ft | 487 kts | 116° |
| 2026-05-05 06:38 | 50.15485 | -125.77549 | 36919 ft | 487 kts | 116° |
| 2026-05-05 06:38 | 50.12283 | -125.68252 | 36409 ft | 485 kts | 116° |
| 2026-05-05 06:38 | 50.10677 | -125.63597 | 35649 ft | 487 kts | 116° |
| 2026-05-05 06:39 | 50.09063 | -125.58928 | 34790 ft | 490 kts | 116° |
| 2026-05-05 06:39 | 50.07441 | -125.54247 | 33997 ft | 491 kts | 115° |
| 2026-05-05 06:39 | 50.05815 | -125.49558 | 33055 ft | 493 kts | 116° |
| 2026-05-05 06:39 | 50.04197 | -125.44902 | 32099 ft | 495 kts | 116° |
| 2026-05-05 06:40 | 50.02547 | -125.40168 | 31111 ft | 497 kts | 116° |
| 2026-05-05 06:40 | 50.00895 | -125.35433 | 30164 ft | 499 kts | 116° |
| 2026-05-05 06:40 | 49.99230 | -125.30671 | 29086 ft | 501 kts | 116° |
| 2026-05-05 06:40 | 49.97591 | -125.25998 | 28352 ft | 495 kts | 116° |
| 2026-05-05 06:41 | 49.95952 | -125.21334 | 27677 ft | 489 kts | 116° |
| 2026-05-05 06:41 | 49.94330 | -125.16725 | 27017 ft | 483 kts | 116° |
| 2026-05-05 06:41 | 49.92731 | -125.12187 | 26348 ft | 477 kts | 116° |
| 2026-05-05 06:41 | 49.91148 | -125.07700 | 25690 ft | 472 kts | 116° |
| 2026-05-05 06:42 | 49.89573 | -125.03244 | 25046 ft | 466 kts | 116° |
| 2026-05-05 06:42 | 49.88020 | -124.98858 | 24426 ft | 461 kts | 116° |
| 2026-05-05 06:42 | 49.86485 | -124.94527 | 23812 ft | 456 kts | 116° |
| 2026-05-05 06:42 | 49.84963 | -124.90244 | 23153 ft | 451 kts | 116° |
| 2026-05-05 06:43 | 49.83452 | -124.85996 | 22450 ft | 447 kts | 116° |
| 2026-05-05 06:43 | 49.81958 | -124.81805 | 21755 ft | 442 kts | 116° |
| 2026-05-05 06:43 | 49.80478 | -124.77658 | 21085 ft | 438 kts | 115° |
| 2026-05-05 06:43 | 49.79010 | -124.73553 | 20420 ft | 434 kts | 115° |
| 2026-05-05 06:44 | 49.77552 | -124.69482 | 19770 ft | 430 kts | 115° |
| 2026-05-05 06:44 | 49.76126 | -124.65507 | 19175 ft | 425 kts | 115° |
| 2026-05-05 06:44 | 49.74697 | -124.61531 | 18593 ft | 420 kts | 115° |
| 2026-05-05 06:44 | 49.73281 | -124.57593 | 17991 ft | 416 kts | 115° |
| 2026-05-05 06:45 | 49.71878 | -124.53700 | 17402 ft | 410 kts | 116° |
| 2026-05-05 06:45 | 49.70500 | -124.49880 | 16834 ft | 405 kts | 116° |
| 2026-05-05 06:45 | 49.69137 | -124.46106 | 16274 ft | 399 kts | 116° |
| 2026-05-05 06:45 | 49.67791 | -124.42383 | 15718 ft | 395 kts | 116° |
| 2026-05-05 06:46 | 49.66460 | -124.38709 | 15166 ft | 390 kts | 116° |
| 2026-05-05 06:46 | 49.65142 | -124.35072 | 14618 ft | 386 kts | 116° |
| 2026-05-05 06:46 | 49.63835 | -124.31472 | 14032 ft | 384 kts | 116° |
| 2026-05-05 06:46 | 49.62535 | -124.27896 | 13501 ft | 380 kts | 117° |
| 2026-05-05 06:47 | 49.61251 | -124.24370 | 12966 ft | 375 kts | 117° |
| 2026-05-05 06:47 | 49.59979 | -124.20882 | 12429 ft | 370 kts | 117° |
| 2026-05-05 06:47 | 49.58725 | -124.17446 | 11911 ft | 366 kts | 117° |
| 2026-05-05 06:47 | 49.57485 | -124.14055 | 11379 ft | 361 kts | 118° |
| 2026-05-05 06:48 | 49.56254 | -124.10690 | 10869 ft | 357 kts | 118° |
| 2026-05-05 06:48 | 49.55043 | -124.07385 | 10438 ft | 351 kts | 118° |
| 2026-05-05 06:48 | 49.53868 | -124.04185 | 10307 ft | 336 kts | 118° |
| 2026-05-05 06:48 | 49.52758 | -124.01165 | 10195 ft | 321 kts | 118° |
| 2026-05-05 06:49 | 49.51674 | -123.98242 | 10076 ft | 307 kts | 121° |
| 2026-05-05 06:49 | 49.50462 | -123.95615 | 9915 ft | 296 kts | 129° |
| 2026-05-05 06:49 | 49.49064 | -123.93311 | 9526 ft | 294 kts | 134° |
| 2026-05-05 06:49 | 49.47642 | -123.91051 | 9081 ft | 293 kts | 133° |
| 2026-05-05 06:50 | 49.46231 | -123.88787 | 8618 ft | 292 kts | 133° |
| 2026-05-05 06:50 | 49.44829 | -123.86532 | 8191 ft | 291 kts | 133° |
| 2026-05-05 06:50 | 49.43435 | -123.84292 | 7816 ft | 289 kts | 133° |
| 2026-05-05 06:50 | 49.42053 | -123.82072 | 7447 ft | 286 kts | 133° |
| 2026-05-05 06:51 | 49.40679 | -123.79871 | 7083 ft | 284 kts | 133° |
| 2026-05-05 06:51 | 49.39318 | -123.77694 | 6723 ft | 282 kts | 133° |
| 2026-05-05 06:51 | 49.37966 | -123.75532 | 6362 ft | 280 kts | 133° |
| 2026-05-05 06:51 | 49.36637 | -123.73411 | 5988 ft | 278 kts | 133° |
| 2026-05-05 06:52 | 49.35294 | -123.71268 | 5636 ft | 277 kts | 133° |
| 2026-05-05 06:52 | 49.33963 | -123.69143 | 5277 ft | 275 kts | 133° |
| 2026-05-05 06:52 | 49.32638 | -123.67032 | 4928 ft | 274 kts | 133° |
| 2026-05-05 06:52 | 49.31317 | -123.64927 | 4570 ft | 273 kts | 134° |
| 2026-05-05 06:53 | 49.30003 | -123.62836 | 4193 ft | 272 kts | 134° |
| 2026-05-05 06:53 | 49.28690 | -123.60749 | 3829 ft | 271 kts | 134° |
| 2026-05-05 06:53 | 49.27380 | -123.58669 | 3465 ft | 271 kts | 134° |
| 2026-05-05 06:53 | 49.26514 | -123.57294 | 3222 ft | 270 kts | 134° |